createdAt,value
2018-07-16T00:00:11.896Z,100469.77
2018-07-16T00:02:40.216Z,100473.94
2018-07-16T00:05:08.336Z,100469.70
2018-07-16T00:07:36.431Z,100469.89
2018-07-16T00:10:04.571Z,100469.50
2018-07-16T00:12:32.802Z,100465.73
2018-07-16T00:15:01.024Z,100463.33
2018-07-16T00:17:29.300Z,100467.11
2018-07-16T00:19:57.500Z,100461.52
2018-07-16T00:22:25.916Z,100463.11
2018-07-16T00:24:54.449Z,100453.72
2018-07-16T00:27:22.622Z,100455.30
2018-07-16T00:29:50.723Z,100454.08
2018-07-16T00:32:18.954Z,100456.25
2018-07-16T00:34:47.015Z,100454.81
2018-07-16T00:37:15.080Z,100450.63
2018-07-16T00:39:43.364Z,100451.20
2018-07-16T00:42:11.429Z,100451.56
2018-07-16T00:44:39.571Z,100458.16
2018-07-16T00:47:08.065Z,100452.00
2018-07-16T00:49:36.551Z,100451.56
2018-07-16T00:52:04.766Z,100448.20
2018-07-16T00:54:33.196Z,100445.39
2018-07-16T00:57:01.446Z,100443.60
2018-07-16T00:59:29.660Z,100441.59
2018-07-16T01:01:57.717Z,100445.75
2018-07-16T01:04:25.765Z,100444.95
2018-07-16T01:06:53.967Z,100443.91
2018-07-16T01:09:22.047Z,100442.70
2018-07-16T01:11:50.132Z,100448.67
2018-07-16T01:14:18.207Z,100446.08
2018-07-16T01:16:46.279Z,100440.67
2018-07-16T01:19:14.404Z,100437.03
2018-07-16T01:21:42.520Z,100435.00
2018-07-16T01:24:10.623Z,100435.16
2018-07-16T01:26:38.682Z,100441.92
2018-07-16T01:29:06.788Z,100436.36
2018-07-16T01:31:34.877Z,100433.95
2018-07-16T01:34:02.949Z,100430.16
2018-07-16T01:36:31.004Z,100425.95
2018-07-16T01:38:59.084Z,100427.71
2018-07-16T01:41:27.219Z,100425.30
2018-07-16T01:43:55.278Z,100425.64
2018-07-16T01:46:23.363Z,100428.56
2018-07-16T01:48:51.428Z,100425.56
2018-07-16T01:51:19.514Z,100423.16
2018-07-16T01:53:47.576Z,100420.73
2018-07-16T01:56:15.620Z,100418.33
2018-07-16T01:58:43.698Z,100422.27
2018-07-16T02:01:12.604Z,100420.48
2018-07-16T02:03:40.649Z,100418.66
2018-07-16T02:06:08.699Z,100416.45
2018-07-16T02:08:36.766Z,100415.43
2018-07-16T02:11:04.928Z,100411.05
2018-07-16T02:13:32.980Z,100411.81
2018-07-16T02:16:01.051Z,100416.53
2018-07-16T02:18:29.102Z,100415.71
2018-07-16T02:20:57.171Z,100416.48
2018-07-16T02:23:25.760Z,100421.45
2018-07-16T02:25:54.099Z,100418.67
2018-07-16T02:28:22.244Z,100417.23
2018-07-16T02:30:50.605Z,100416.40
2018-07-16T02:33:19.195Z,100414.38
2018-07-16T02:35:47.359Z,100412.15
2018-07-16T02:38:15.437Z,100412.14
2018-07-16T02:40:43.488Z,100412.94
2018-07-16T02:43:11.647Z,100406.95
2018-07-16T02:45:39.720Z,100407.90
2018-07-16T02:48:07.790Z,100413.23
2018-07-16T02:50:36.024Z,100407.49
2018-07-16T02:53:04.176Z,100409.83
2018-07-16T02:55:32.339Z,100410.63
2018-07-16T02:58:00.580Z,100406.42
2018-07-16T03:00:28.869Z,100412.95
2018-07-16T03:02:57.176Z,100414.52
2018-07-16T03:05:25.552Z,100413.09
2018-07-16T03:07:53.734Z,100411.48
2018-07-16T03:10:22.043Z,100407.89
2018-07-16T03:12:50.328Z,100405.87
2018-07-16T03:15:18.440Z,100410.20
2018-07-16T03:17:46.880Z,100408.20
2018-07-16T03:20:14.911Z,100408.25
2018-07-16T03:22:42.995Z,100410.85
2018-07-16T03:25:11.043Z,100411.29
2018-07-16T03:27:39.396Z,100416.45
2018-07-16T03:30:07.459Z,100412.45
2018-07-16T03:32:35.668Z,100411.61
2018-07-16T03:35:03.859Z,100410.79
2018-07-16T03:37:32.063Z,100410.96
2018-07-16T03:40:00.283Z,100415.27
2018-07-16T03:42:28.481Z,100416.47
2018-07-16T03:44:56.916Z,100412.89
2018-07-16T03:47:25.331Z,100412.30
2018-07-16T03:49:54.032Z,100408.50
2018-07-16T03:52:22.399Z,100414.64
2018-07-16T03:54:50.616Z,100408.48
2018-07-16T03:57:18.704Z,100409.48
2018-07-16T03:59:46.774Z,100409.09
2018-07-16T04:02:14.819Z,100406.95
2018-07-16T04:04:43.024Z,100410.35
2018-07-16T04:07:11.074Z,100407.26
2018-07-16T04:09:39.110Z,100404.35
2018-07-16T04:12:07.207Z,100402.83
2018-07-16T04:14:35.279Z,100403.24
2018-07-16T04:17:03.355Z,100401.00
2018-07-16T04:19:31.732Z,100405.75
2018-07-16T04:21:59.805Z,100403.65
2018-07-16T04:24:27.855Z,100403.11
2018-07-16T04:26:56.295Z,100405.56
2018-07-16T04:29:24.649Z,100405.47
2018-07-16T04:31:52.872Z,100405.01
2018-07-16T04:34:20.963Z,100394.34
2018-07-16T04:36:49.095Z,100393.88
2018-07-16T04:39:17.166Z,100397.95
2018-07-16T04:41:45.324Z,100391.30
2018-07-16T04:44:13.416Z,100381.48
2018-07-16T04:46:41.617Z,100384.62
2018-07-16T04:49:09.659Z,100383.46
2018-07-16T04:51:37.753Z,100390.58
2018-07-16T04:54:06.133Z,100379.69
2018-07-16T04:56:34.332Z,100386.08
2018-07-16T04:59:02.591Z,100376.95
2018-07-16T05:01:30.647Z,100374.76
2018-07-16T05:03:58.736Z,100377.23
2018-07-16T05:06:26.771Z,100378.56
2018-07-16T05:08:54.864Z,100378.71
2018-07-16T05:11:22.919Z,100376.60
2018-07-16T05:13:51.136Z,100373.45
2018-07-16T05:16:19.196Z,100380.22
2018-07-16T05:18:47.271Z,100369.72
2018-07-16T05:21:15.319Z,100373.23
2018-07-16T05:23:43.822Z,100371.89
2018-07-16T05:26:11.864Z,100367.35
2018-07-16T05:28:39.936Z,100362.98
2018-07-16T05:31:07.971Z,100365.78
2018-07-16T05:33:36.039Z,100356.73
2018-07-16T05:36:04.113Z,100357.93
2018-07-16T05:38:32.195Z,100358.14
2018-07-16T05:41:00.307Z,100353.14
2018-07-16T05:43:28.350Z,100353.34
2018-07-16T05:45:56.387Z,100349.23
2018-07-16T05:48:24.435Z,100353.45
2018-07-16T05:50:52.503Z,100351.29
2018-07-16T05:53:20.575Z,100357.49
2018-07-16T05:55:48.658Z,100358.48
2018-07-16T05:58:16.778Z,100355.09
2018-07-16T06:00:44.832Z,100352.36
2018-07-16T06:03:12.943Z,100350.02
2018-07-16T06:05:41.041Z,100347.12
2018-07-16T06:08:09.104Z,100347.59
2018-07-16T06:10:37.306Z,100351.67
2018-07-16T06:13:05.421Z,100349.17
2018-07-16T06:15:33.515Z,100342.30
2018-07-16T06:18:01.617Z,100339.80
2018-07-16T06:20:29.639Z,100338.88
2018-07-16T06:22:57.706Z,100338.77
2018-07-16T06:25:25.743Z,100339.72
2018-07-16T06:27:53.888Z,100338.07
2018-07-16T06:30:22.251Z,100337.64
2018-07-16T06:32:50.287Z,100337.34
2018-07-16T06:35:18.437Z,100310.41
2018-07-16T06:37:46.507Z,100334.20
2018-07-16T06:40:14.646Z,100325.25
2018-07-16T06:42:42.594Z,100328.97
2018-07-16T06:45:10.691Z,100322.69
2018-07-16T06:47:38.753Z,100324.14
2018-07-16T06:50:07.667Z,100325.72
2018-07-16T06:52:36.243Z,100327.53
2018-07-16T06:55:04.765Z,100325.33
2018-07-16T06:57:32.803Z,100328.37
2018-07-16T07:00:00.793Z,100327.09
2018-07-16T07:02:28.859Z,100326.77
2018-07-16T07:04:56.915Z,100334.11
2018-07-16T07:07:24.943Z,100330.39
2018-07-16T07:09:53.121Z,100332.61
2018-07-16T07:12:21.151Z,100333.15
2018-07-16T07:14:49.208Z,100326.85
2018-07-16T07:17:17.303Z,100322.02
2018-07-16T07:19:45.361Z,100322.44
2018-07-16T07:22:13.416Z,100318.57
2018-07-16T07:24:41.483Z,100321.27
2018-07-16T07:27:10.302Z,100314.03
2018-07-16T07:29:38.444Z,100320.63
2018-07-16T07:32:10.447Z,100319.80
2018-07-16T07:34:38.540Z,100310.66
2018-07-16T07:37:06.600Z,100310.93
2018-07-16T07:39:34.699Z,100308.50
2018-07-16T07:42:02.856Z,100309.05
2018-07-16T07:44:30.917Z,100301.92
2018-07-16T07:46:58.958Z,100298.80
2018-07-16T07:49:26.982Z,100307.23
2018-07-16T07:51:55.062Z,100300.80
2018-07-16T07:54:23.272Z,100308.61
2018-07-16T07:56:51.351Z,100300.37
2018-07-16T07:59:19.404Z,100294.67
2018-07-16T08:01:47.605Z,100296.03
2018-07-16T08:04:15.923Z,100294.34
2018-07-16T08:06:48.267Z,100294.11
2018-07-16T08:09:16.284Z,100289.22
2018-07-16T08:11:44.315Z,100292.92
2018-07-16T08:14:12.405Z,100282.72
2018-07-16T08:16:40.544Z,100283.31
2018-07-16T08:19:10.056Z,100280.59
2018-07-16T08:21:38.164Z,100278.48
2018-07-16T08:24:06.235Z,100279.67
2018-07-16T08:26:34.328Z,100280.06
2018-07-16T08:29:02.627Z,100276.47
2018-07-16T08:31:30.875Z,100279.00
2018-07-16T08:33:59.504Z,100279.42
2018-07-16T08:36:27.961Z,100276.37
2018-07-16T08:38:56.576Z,100277.36
2018-07-16T08:41:25.422Z,100274.70
2018-07-16T08:43:53.875Z,100276.10
2018-07-16T08:46:22.263Z,100273.00
2018-07-16T08:48:50.330Z,100272.73
2018-07-16T08:51:18.426Z,100278.70
2018-07-16T08:53:46.655Z,100284.00
2018-07-16T08:56:14.723Z,100275.98
2018-07-16T08:58:42.790Z,100270.85
2018-07-16T09:01:10.850Z,100267.28
2018-07-16T09:03:38.919Z,100271.55
2018-07-16T09:06:07.135Z,100269.11
2018-07-16T09:08:36.164Z,100266.46
2018-07-16T09:11:04.502Z,100260.48
2018-07-16T09:13:32.795Z,100251.99
2018-07-16T09:16:00.780Z,100258.66
2018-07-16T09:18:29.011Z,100251.42
2018-07-16T09:20:57.125Z,100265.08
2018-07-16T09:23:25.176Z,100257.91
2018-07-16T09:25:53.288Z,100253.20
2018-07-16T09:28:21.540Z,100254.20
2018-07-16T09:30:49.583Z,100248.48
2018-07-16T09:33:17.696Z,100262.73
2018-07-16T09:35:45.826Z,100258.80
2018-07-16T09:38:13.875Z,100258.78
2018-07-16T09:40:41.955Z,100247.45
2018-07-16T09:43:10.014Z,100249.00
2018-07-16T09:45:38.063Z,100250.39
2018-07-16T09:48:06.220Z,100240.59
2018-07-16T09:50:34.300Z,100248.47
2018-07-16T09:53:02.361Z,100231.24
2018-07-16T09:55:30.418Z,100238.47
2018-07-16T09:57:58.872Z,100237.69
2018-07-16T10:00:32.543Z,100238.62
2018-07-16T10:03:00.687Z,100237.88
2018-07-16T10:05:28.772Z,100230.00
2018-07-16T10:07:56.860Z,100238.31
2018-07-16T10:10:24.964Z,100227.10
2018-07-16T10:12:53.224Z,100228.20
2018-07-16T10:15:21.607Z,100231.56
2018-07-16T10:17:49.656Z,100232.83
2018-07-16T10:20:17.736Z,100233.28
2018-07-16T10:22:45.764Z,100231.15
2018-07-16T10:25:13.827Z,100228.67
2018-07-16T10:27:41.879Z,100239.89
2018-07-16T10:30:10.012Z,100235.40
2018-07-16T10:32:38.099Z,100240.20
2018-07-16T10:35:06.262Z,100225.14
2018-07-16T10:37:34.514Z,100219.80
2018-07-16T10:40:02.856Z,100222.69
2018-07-16T10:42:31.132Z,100225.43
2018-07-16T10:44:59.608Z,100227.34
2018-07-16T10:47:28.041Z,100219.47
2018-07-16T10:49:56.432Z,100221.70
2018-07-16T10:52:24.850Z,100219.01
2018-07-16T10:54:53.117Z,100229.20
2018-07-16T10:57:21.269Z,100212.22
2018-07-16T10:59:49.641Z,100212.22
2018-07-16T11:02:17.676Z,100211.86
2018-07-16T11:04:48.769Z,100211.19
2018-07-16T11:07:16.855Z,100210.89
2018-07-16T11:09:44.904Z,100219.01
2018-07-16T11:12:13.080Z,100213.04
2018-07-16T11:14:41.199Z,100210.80
2018-07-16T11:17:09.283Z,100209.02
2018-07-16T11:19:37.369Z,100207.23
2018-07-16T11:22:05.528Z,100198.13
2018-07-16T11:24:33.771Z,100209.31
2018-07-16T11:27:02.088Z,100202.59
2018-07-16T11:29:30.517Z,100201.80
2018-07-16T11:31:58.967Z,100187.28
2018-07-16T11:34:27.493Z,100203.37
2018-07-16T11:36:56.160Z,100193.03
2018-07-16T11:39:24.764Z,100197.66
2018-07-16T11:41:53.083Z,100187.06
2018-07-16T11:44:21.533Z,100182.61
2018-07-16T11:46:49.647Z,100186.08
2018-07-16T11:49:17.827Z,100181.45
2018-07-16T11:51:45.919Z,100183.95
2018-07-16T11:54:14.355Z,100181.88
2018-07-16T11:56:42.536Z,100180.07
2018-07-16T11:59:10.645Z,100183.49
2018-07-16T12:01:38.767Z,100180.13
2018-07-16T12:04:06.851Z,100171.48
2018-07-16T12:06:35.228Z,100166.61
2018-07-16T12:09:03.744Z,100167.27
2018-07-16T12:11:31.931Z,100159.70
2018-07-16T12:14:00.213Z,100172.89
2018-07-16T12:16:28.460Z,100160.94
2018-07-16T12:18:56.517Z,100156.47
2018-07-16T12:21:24.647Z,100155.52
2018-07-16T12:23:52.703Z,100148.34
2018-07-16T12:26:21.079Z,100153.22
2018-07-16T12:28:49.214Z,100149.00
2018-07-16T12:31:17.298Z,100140.52
2018-07-16T12:33:46.313Z,100144.11
2018-07-16T12:36:14.371Z,100135.92
2018-07-16T12:38:42.607Z,100139.69
2018-07-16T12:41:10.731Z,100134.31
2018-07-16T12:43:38.851Z,100138.44
2018-07-16T12:46:06.923Z,100135.14
2018-07-16T12:48:35.705Z,100134.11
2018-07-16T12:51:04.118Z,100125.02
2018-07-16T12:53:32.180Z,100126.05
2018-07-16T12:56:00.247Z,100124.52
2018-07-16T12:58:28.650Z,100117.22
2018-07-16T13:00:57.961Z,100114.42
2018-07-16T13:03:26.940Z,100114.01
2018-07-16T13:05:55.009Z,100114.14
2018-07-16T13:08:23.182Z,100106.08
2018-07-16T13:10:51.241Z,100096.34
2018-07-16T13:13:19.341Z,100095.88
2018-07-16T13:15:47.473Z,100098.88
2018-07-16T13:18:15.486Z,100084.48
2018-07-16T13:20:43.569Z,100082.89
2018-07-16T13:23:11.676Z,100086.67
2018-07-16T13:25:40.779Z,100084.52
2018-07-16T13:28:08.823Z,100087.61
2018-07-16T13:30:36.938Z,100076.53
2018-07-16T13:33:05.009Z,100077.50
2018-07-16T13:35:33.075Z,100066.52
2018-07-16T13:38:01.175Z,100074.10
2018-07-16T13:40:29.456Z,100068.09
2018-07-16T13:42:57.695Z,100077.95
2018-07-16T13:45:26.452Z,100069.04
2018-07-16T13:47:55.115Z,100064.31
2018-07-16T13:50:23.979Z,100066.67
2018-07-16T13:52:52.383Z,100062.80
2018-07-16T13:55:20.686Z,100067.52
2018-07-16T13:57:48.928Z,100069.98
2018-07-16T14:00:16.995Z,100065.65
2018-07-16T14:02:45.124Z,100060.83
2018-07-16T14:05:13.190Z,100060.19
2018-07-16T14:07:41.267Z,100049.84
2018-07-16T14:10:09.409Z,100056.73
2018-07-16T14:12:37.570Z,100052.48
2018-07-16T14:15:05.767Z,100045.76
2018-07-16T14:17:34.097Z,100055.80
2018-07-16T14:20:02.160Z,100048.65
2018-07-16T14:22:30.191Z,100040.66
2018-07-16T14:24:58.318Z,100046.97
2018-07-16T14:27:26.407Z,100039.82
2018-07-16T14:29:54.450Z,100038.06
2018-07-16T14:32:22.547Z,100046.20
2018-07-16T14:34:50.642Z,100046.89
2018-07-16T14:37:18.900Z,100040.30
2018-07-16T14:39:47.127Z,100036.22
2018-07-16T14:42:15.124Z,100042.52
2018-07-16T14:44:43.379Z,100044.27
2018-07-16T14:47:11.464Z,100036.56
2018-07-16T14:49:39.579Z,100038.88
2018-07-16T14:52:07.783Z,100037.82
2018-07-16T14:54:35.880Z,100039.48
2018-07-16T14:57:04.360Z,100036.27
2018-07-16T14:59:32.643Z,100034.13
2018-07-16T15:02:00.859Z,100031.62
2018-07-16T15:04:28.931Z,100038.16
2018-07-16T15:06:57.171Z,100026.08
2018-07-16T15:09:25.261Z,100027.94
2018-07-16T15:11:53.382Z,100032.95
2018-07-16T15:14:23.299Z,100029.30
2018-07-16T15:16:51.368Z,100030.47
2018-07-16T15:19:19.400Z,100027.97
2018-07-16T15:21:47.488Z,100032.86
2018-07-16T15:24:15.590Z,100041.98
2018-07-16T15:26:43.679Z,100031.76
2018-07-16T15:29:11.777Z,100028.16
2018-07-16T15:31:39.864Z,100026.17
2018-07-16T15:34:07.936Z,100026.39
2018-07-16T15:36:36.381Z,100026.17
2018-07-16T15:39:05.191Z,100023.14
2018-07-16T15:41:33.574Z,100019.86
2018-07-16T15:44:01.846Z,100021.60
2018-07-16T15:46:30.215Z,100021.09
2018-07-16T15:48:58.519Z,100019.55
2018-07-16T15:51:27.252Z,100019.64
2018-07-16T15:53:55.548Z,100023.99
2018-07-16T15:56:23.918Z,100012.10
2018-07-16T15:58:52.235Z,100015.92
2018-07-16T16:01:20.388Z,100009.27
2018-07-16T16:03:48.509Z,100014.05
2018-07-16T16:06:16.603Z,100017.75
2018-07-16T16:08:44.668Z,100012.52
2018-07-16T16:11:12.883Z,100012.61
2018-07-16T16:13:40.969Z,100008.60
2018-07-16T16:16:09.173Z,100005.00
2018-07-16T16:18:38.489Z,100007.75
2018-07-16T16:21:06.707Z,100007.11
2018-07-16T16:23:35.464Z,100004.12
2018-07-16T16:26:03.815Z,99999.64
2018-07-16T16:28:32.122Z,100003.02
2018-07-16T16:31:00.918Z,100002.41
2018-07-16T16:33:29.797Z,100004.52
2018-07-16T16:35:58.469Z,100001.37
2018-07-16T16:38:27.291Z,99999.42
2018-07-16T16:40:55.940Z,99996.67
2018-07-16T16:43:24.660Z,100001.97
2018-07-16T16:45:53.442Z,99990.62
2018-07-16T16:48:21.554Z,99991.30
2018-07-16T16:50:49.731Z,99997.06
2018-07-16T16:53:18.332Z,99997.88
2018-07-16T16:55:46.542Z,99989.90
2018-07-16T16:58:14.611Z,99991.86
2018-07-16T17:00:42.706Z,99988.55
2018-07-16T17:03:10.760Z,99986.09
2018-07-16T17:05:39.062Z,99984.83
2018-07-16T17:08:07.069Z,99982.80
2018-07-16T17:10:35.136Z,99988.84
2018-07-16T17:13:03.484Z,99996.66
2018-07-16T17:15:31.604Z,99987.42
2018-07-16T17:17:59.961Z,99993.34
2018-07-16T17:20:28.181Z,99988.53
2018-07-16T17:22:56.448Z,99991.37
2018-07-16T17:25:25.040Z,99988.31
2018-07-16T17:27:53.336Z,99997.25
2018-07-16T17:30:21.730Z,99998.17
2018-07-16T17:32:49.802Z,100001.00
2018-07-16T17:35:17.964Z,99990.99
2018-07-16T17:37:47.022Z,99995.56
2018-07-16T17:40:15.103Z,99992.86
2018-07-16T17:42:43.179Z,99989.39
2018-07-16T17:45:11.275Z,99994.25
2018-07-16T17:47:39.447Z,99996.11
2018-07-16T17:50:07.734Z,99998.02
2018-07-16T17:52:35.930Z,100007.79
2018-07-16T17:55:03.988Z,100003.14
2018-07-16T17:57:32.044Z,100003.47
2018-07-16T18:00:00.446Z,100008.35
2018-07-16T18:02:28.564Z,100007.27
2018-07-16T18:04:56.885Z,100007.40
2018-07-16T18:07:24.944Z,100015.97
2018-07-16T18:09:53.552Z,100011.93
2018-07-16T18:12:22.473Z,100017.30
2018-07-16T18:14:50.708Z,100014.95
2018-07-16T18:17:18.820Z,100014.62
2018-07-16T18:19:46.943Z,100016.03
2018-07-16T18:22:15.030Z,100025.33
2018-07-16T18:24:43.155Z,100026.13
2018-07-16T18:27:11.267Z,100021.30
2018-07-16T18:29:39.444Z,100033.13
2018-07-16T18:32:07.983Z,100027.83
2018-07-16T18:34:36.327Z,100036.33
2018-07-16T18:37:04.401Z,100036.04
2018-07-16T18:39:32.564Z,100034.95
2018-07-16T18:42:00.664Z,100037.48
2018-07-16T18:44:29.319Z,100037.52
2018-07-16T18:46:57.821Z,100046.21
2018-07-16T18:49:26.704Z,100047.13
2018-07-16T18:51:55.922Z,100050.45
2018-07-16T18:54:24.980Z,100042.44
2018-07-16T18:56:53.085Z,100050.00
2018-07-16T18:59:21.143Z,100051.44
2018-07-16T19:01:49.287Z,100053.97
2018-07-16T19:04:17.375Z,100050.52
2018-07-16T19:06:45.951Z,100053.04
2018-07-16T19:09:14.329Z,100056.14
2018-07-16T19:11:43.654Z,100055.20
2018-07-16T19:14:11.772Z,100059.61
2018-07-16T19:16:39.832Z,100061.66
2018-07-16T19:19:08.024Z,100065.09
2018-07-16T19:21:36.679Z,100063.84
2018-07-16T19:24:04.764Z,100066.64
2018-07-16T19:26:33.535Z,100066.00
2018-07-16T19:29:01.936Z,100064.20
2018-07-16T19:31:30.307Z,100066.86
2018-07-16T19:33:58.805Z,100065.41
2018-07-16T19:36:28.334Z,100072.75
2018-07-16T19:38:57.250Z,100074.60
2018-07-16T19:41:27.503Z,100085.23
2018-07-16T19:43:56.335Z,100093.80
2018-07-16T19:46:25.122Z,100092.92
2018-07-16T19:48:53.572Z,100092.59
2018-07-16T19:51:22.016Z,100096.91
2018-07-16T19:53:50.199Z,100092.78
2018-07-16T19:56:18.336Z,100103.21
2018-07-16T19:58:46.412Z,100103.14
2018-07-16T20:01:15.111Z,100100.42
2018-07-16T20:03:43.207Z,100099.43
2018-07-16T20:06:11.379Z,100105.28
2018-07-16T20:08:39.581Z,100109.16
2018-07-16T20:11:07.990Z,100108.78
2018-07-16T20:13:36.531Z,100109.02
2018-07-16T20:16:04.763Z,100103.64
2018-07-16T20:18:32.882Z,100112.33
2018-07-16T20:21:01.943Z,100112.59
2018-07-16T20:23:30.572Z,100108.59
2018-07-16T20:25:59.556Z,100113.22
2018-07-16T20:28:27.667Z,100116.27
2018-07-16T20:30:56.407Z,100112.08
2018-07-16T20:33:25.212Z,100116.20
2018-07-16T20:35:54.657Z,100115.47
2018-07-16T20:38:23.624Z,100119.91
2018-07-16T20:40:52.107Z,100119.34
2018-07-16T20:43:20.247Z,100117.64
2018-07-16T20:45:48.368Z,100115.85
2018-07-16T20:48:16.486Z,100115.11
2018-07-16T20:50:44.692Z,100123.94
2018-07-16T20:53:13.751Z,100125.97
2018-07-16T20:55:41.796Z,100126.78
2018-07-16T20:58:09.847Z,100125.05
2018-07-16T21:00:38.052Z,100135.13
2018-07-16T21:03:06.474Z,100129.53
2018-07-16T21:05:34.660Z,100126.90
2018-07-16T21:08:02.735Z,100133.08
2018-07-16T21:10:31.921Z,100135.27
2018-07-16T21:13:00.026Z,100133.62
2018-07-16T21:15:28.112Z,100129.34
2018-07-16T21:17:56.238Z,100136.08
2018-07-16T21:20:24.714Z,100139.41
2018-07-16T21:22:52.838Z,100147.59
2018-07-16T21:25:21.482Z,100148.73
2018-07-16T21:27:49.968Z,100148.03
2018-07-16T21:30:18.158Z,100144.35
2018-07-16T21:32:46.161Z,100150.16
2018-07-16T21:35:14.489Z,100148.92
2018-07-16T21:37:42.783Z,100153.48
2018-07-16T21:40:10.855Z,100156.45
2018-07-16T21:42:40.240Z,100151.98
2018-07-16T21:45:08.359Z,100154.52
2018-07-16T21:47:36.563Z,100155.05
2018-07-16T21:50:05.248Z,100160.97
2018-07-16T21:52:33.460Z,100158.50
2018-07-16T21:55:01.877Z,100168.85
2018-07-16T21:57:30.151Z,100168.39
2018-07-16T21:59:58.431Z,100169.52
2018-07-16T22:02:26.868Z,100164.39
2018-07-16T22:04:55.031Z,100165.10
2018-07-16T22:07:23.125Z,100171.04
2018-07-16T22:09:51.407Z,100167.51
2018-07-16T22:12:20.463Z,100168.22
2018-07-16T22:14:48.704Z,100153.22
2018-07-16T22:17:16.801Z,100179.35
2018-07-16T22:19:45.320Z,100183.34
2018-07-16T22:22:13.376Z,100193.08
2018-07-16T22:24:41.447Z,100187.79
2018-07-16T22:27:10.972Z,100185.49
2018-07-16T22:29:39.044Z,100186.09
2018-07-16T22:32:07.116Z,100185.72
2018-07-16T22:34:35.259Z,100184.56
2018-07-16T22:37:03.324Z,100187.02
2018-07-16T22:39:31.389Z,100189.94
2018-07-16T22:41:59.588Z,100190.24
2018-07-16T22:44:29.484Z,100189.17
2018-07-16T22:46:57.669Z,100186.05
2018-07-16T22:49:25.756Z,100180.94
2018-07-16T22:51:53.835Z,100187.84
2018-07-16T22:54:21.987Z,100189.89
2018-07-16T22:56:50.128Z,100190.55
2018-07-16T22:59:18.187Z,100189.64
2018-07-16T23:01:46.237Z,100185.94
2018-07-16T23:04:15.620Z,100183.20
2018-07-16T23:06:43.669Z,100186.50
2018-07-16T23:09:11.729Z,100181.73
2018-07-16T23:11:40.072Z,100186.78
2018-07-16T23:14:08.628Z,100191.64
2018-07-16T23:16:36.744Z,100185.73
2018-07-16T23:19:05.816Z,100187.66
2018-07-16T23:21:33.873Z,100186.55
2018-07-16T23:24:08.469Z,100188.42
2018-07-16T23:26:36.523Z,100180.72
2018-07-16T23:29:06.101Z,100191.08
2018-07-16T23:31:34.129Z,100191.88
2018-07-16T23:34:02.210Z,100188.91
2018-07-16T23:36:30.435Z,100189.91
2018-07-16T23:39:00.176Z,100185.08
2018-07-16T23:41:28.244Z,100187.72
2018-07-16T23:43:56.333Z,100187.33
2018-07-16T23:46:25.608Z,100186.16
2018-07-16T23:48:53.683Z,100185.80
2018-07-16T23:51:21.852Z,100187.84
2018-07-16T23:53:49.908Z,100186.31
2018-07-16T23:56:19.253Z,100178.42
2018-07-16T23:58:47.599Z,100182.29
